Hauptseite
METAR-TAF:

METAR-TAF

Flughäfen :

Flughafen Auckland

Auckland, Neuseeland

Breite: 37-01S, Länge: 174-48E, Höhe: 7 m

Beobachtung

Neuester Wetterbericht von vor 36 Minuten, um 07:30 UTC
Wind 6 kt aus Süd/Südwest
Temperatur 20°C
Luftfeuchtigkeit 78%
Luftdruck 1023 hPa
Sichtweite 10 km oder mehr

METAR: NZAA 200730Z AUTO 21006KT 9999 NCD 20/16 Q1023 NOSIG

Zeit: 21:06 (08:06 UTC)

Prognose

Neuester Wetterbericht von vor 2 Stunden und 53 Minuten, um 05:13 UTC
Gültige Prognose vom 20 um 06 UTC bis 21 um 06 UTC
Wind 10 kt aus Südwest
Sichtweite 10 km oder mehr
Durchbrochene Bewölkung in der Höhe von 3000 ft
Übergehend zu
vom 20 um 07 UTC bis 20 um 09 UTC
Wind 5 kt aus Ost/Südost
Übergehend zu
vom 20 um 23 UTC bis 21 um 01 UTC
Wind 10 kt aus West/Südwest

TAF: NZAA 200513Z 2006/2106 22010KT 9999 BKN030 BECMG 2007/2009 12005KT BECMG 2023/2101 24010KT

Wetterbeobachtungen und Prognosen von mehr als 4000 Flughäfen (METAR und TAF Bericht).

Die verfügbaren Stationen werden durch gelbe und rote Markierungen auf der Karte dargestellt.

Führen Sie die Maus auf sie, um den Namen der Station zu sehen.

Darauf klicken, um die Beobachtung von Wetterbeobachtungen und Prognosen zu sehen.

Um die Karte zu ändern : klicken Sie auf den grünen Tasten mit einem schwarzen Kreuz Zum Vergrößern, auf den grünen Button mit einem Gedankenstrich zu verkleinern, oder auf die grünen Pfeile für benachbarte Karten.


METAR-TAF: